Swansea, Tasmania

12:40 AM AEST on May 29, 2015 (GMT +1000)
The Grange Hills Swansea | | Change Station
CLOSE
Current Station
Personal Weather Station
Location: Swansea, TASMANIA
Elevation: 79 ft
Nearby Weather Stations

Elev 79 ft 42.04 °S, 148.08 °E | Updated 1 minute ago

Partly Cloudy
Partly Cloudy
50.0 °F
Feels Like 50.0 °F
N
2.0
Wind Variable Wind from North
Gusts 4.0 mph

Today
High -- | Low -- °F
--% Chance of Precip.
Yesterday
High -- | Low -- °F
Precip. -- in
7:23 AM 4:46 PM
Waxing Gibbous, 76% visible
Pressure 29.71 in
Visibility 6.2 miles
Clouds Few 3000 ft
Dew Point 38 °F
Humidity 63%
Rainfall 0.00 in
Snow Depth Not available.
UV 0 out of 12
Pollen Not available.
Air Quality Not available.
Flu Activity Not available.
METAR YMHB 281430Z 33014KT 9999 FEW030 09/02 Q1006

More Conditions Fewer Conditions

Pressure 29.71 in
Visibility 6.2 miles
Clouds Few 3000 ft
Dew Point 38 °F
Humidity 63%
Rainfall 0.00 in
Snow Depth Not available.
UV 0 out of 12
Pollen Not available.
Air Quality Not available.
Flu Activity Not available.
METAR YMHB 281430Z 33014KT 9999 FEW030 09/02 Q1006

More Conditions Fewer Conditions

10-Day Weather Forecast

Almanac

Astronomy

May. 29, 2015 Rise Set
Actual Time
Civil Twilight
Nautical Twilight
Astronomical Twilight
Moon
Length of Visible Light
Length of Day
Tomorrow will be .
, % of the Moon is Illuminated

Today's Extremes

Country Highs Country Lows

Community

WunderPhotos

Upload Photos

1,824,988 photos uploaded!

WunderBlogs® & News

Nearby

Air Quality

  Air Quality AQ Index Pollutant
Not available.

Snow Depth

Station Depth Elevation

Earthquake Activity

City Distance Mag. Time & Date
Minimum magnitude displayed is 2.5.

Coastal Water Temperatures

Place Temperature

Stations

Nearby Weather Stations

Station Location Temp. Windchill Dew Point Humidity Wind Precip. Elev Updated Type